sensor_id;sensor_type;location;lat;lon;timestamp;P1;durP1;ratioP1;P2;durP2;ratioP2
9906;SDS011;4992;51.628;6.664;2023-02-19T00:00:32;27.23;;;21.40;;
9906;SDS011;4992;51.628;6.664;2023-02-19T00:02:58;30.50;;;22.30;;
9906;SDS011;4992;51.628;6.664;2023-02-19T00:05:24;28.98;;;21.58;;
9906;SDS011;4992;51.628;6.664;2023-02-19T00:07:49;28.90;;;21.30;;
9906;SDS011;4992;51.628;6.664;2023-02-19T00:10:15;30.42;;;22.52;;
9906;SDS011;4992;51.628;6.664;2023-02-19T00:12:41;27.45;;;21.63;;
9906;SDS011;4992;51.628;6.664;2023-02-19T00:15:07;26.48;;;20.73;;
9906;SDS011;4992;51.628;6.664;2023-02-19T00:17:33;29.13;;;21.50;;
9906;SDS011;4992;51.628;6.664;2023-02-19T00:19:59;27.25;;;20.85;;
9906;SDS011;4992;51.628;6.664;2023-02-19T00:22:25;27.50;;;19.83;;
9906;SDS011;4992;51.628;6.664;2023-02-19T00:24:51;25.08;;;20.27;;
9906;SDS011;4992;51.628;6.664;2023-02-19T00:27:17;27.63;;;21.92;;
9906;SDS011;4992;51.628;6.664;2023-02-19T00:29:43;28.58;;;21.35;;
9906;SDS011;4992;51.628;6.664;2023-02-19T00:32:09;27.35;;;20.52;;
9906;SDS011;4992;51.628;6.664;2023-02-19T00:34:35;27.85;;;20.25;;
9906;SDS011;4992;51.628;6.664;2023-02-19T00:37:01;27.45;;;19.30;;
9906;SDS011;4992;51.628;6.664;2023-02-19T00:39:27;23.97;;;19.37;;
9906;SDS011;4992;51.628;6.664;2023-02-19T00:41:53;25.67;;;20.27;;
9906;SDS011;4992;51.628;6.664;2023-02-19T00:44:19;24.73;;;18.90;;
9906;SDS011;4992;51.628;6.664;2023-02-19T00:46:45;23.60;;;19.07;;
9906;SDS011;4992;51.628;6.664;2023-02-19T00:49:13;29.45;;;20.00;;
9906;SDS011;4992;51.628;6.664;2023-02-19T00:51:40;25.27;;;19.70;;
9906;SDS011;4992;51.628;6.664;2023-02-19T00:54:06;27.63;;;20.70;;
9906;SDS011;4992;51.628;6.664;2023-02-19T00:56:32;27.58;;;20.08;;
9906;SDS011;4992;51.628;6.664;2023-02-19T00:58:58;27.00;;;20.55;;
9906;SDS011;4992;51.628;6.664;2023-02-19T01:01:24;26.63;;;20.17;;
9906;SDS011;4992;51.628;6.664;2023-02-19T01:03:50;27.50;;;19.38;;
9906;SDS011;4992;51.628;6.664;2023-02-19T01:06:17;28.40;;;21.38;;
9906;SDS011;4992;51.628;6.664;2023-02-19T01:08:43;27.80;;;20.52;;
9906;SDS011;4992;51.628;6.664;2023-02-19T01:11:09;31.50;;;21.70;;
9906;SDS011;4992;51.628;6.664;2023-02-19T01:13:36;30.13;;;20.60;;
9906;SDS011;4992;51.628;6.664;2023-02-19T01:16:03;32.20;;;21.05;;
9906;SDS011;4992;51.628;6.664;2023-02-19T01:18:29;30.15;;;20.40;;
9906;SDS011;4992;51.628;6.664;2023-02-19T01:20:55;28.30;;;20.60;;
9906;SDS011;4992;51.628;6.664;2023-02-19T01:23:21;29.45;;;20.77;;
9906;SDS011;4992;51.628;6.664;2023-02-19T01:25:47;31.02;;;20.63;;
9906;SDS011;4992;51.628;6.664;2023-02-19T01:28:13;30.55;;;19.80;;
9906;SDS011;4992;51.628;6.664;2023-02-19T01:30:39;33.28;;;20.88;;
9906;SDS011;4992;51.628;6.664;2023-02-19T01:33:06;28.98;;;19.95;;
9906;SDS011;4992;51.628;6.664;2023-02-19T01:35:32;32.57;;;20.13;;
9906;SDS011;4992;51.628;6.664;2023-02-19T01:37:58;32.23;;;19.40;;
9906;SDS011;4992;51.628;6.664;2023-02-19T01:40:25;27.53;;;19.17;;
9906;SDS011;4992;51.628;6.664;2023-02-19T01:42:51;29.13;;;18.33;;
9906;SDS011;4992;51.628;6.664;2023-02-19T01:45:19;30.67;;;20.05;;
9906;SDS011;4992;51.628;6.664;2023-02-19T01:47:46;28.77;;;19.17;;
9906;SDS011;4992;51.628;6.664;2023-02-19T01:50:14;29.75;;;19.40;;
9906;SDS011;4992;51.628;6.664;2023-02-19T01:52:40;27.67;;;19.55;;
9906;SDS011;4992;51.628;6.664;2023-02-19T01:55:06;28.17;;;18.83;;
9906;SDS011;4992;51.628;6.664;2023-02-19T01:57:37;31.67;;;20.00;;
9906;SDS011;4992;51.628;6.664;2023-02-19T02:00:05;29.88;;;18.30;;
9906;SDS011;4992;51.628;6.664;2023-02-19T02:02:32;30.45;;;18.88;;
9906;SDS011;4992;51.628;6.664;2023-02-19T02:04:58;29.35;;;19.38;;
9906;SDS011;4992;51.628;6.664;2023-02-19T02:07:25;25.83;;;17.70;;
9906;SDS011;4992;51.628;6.664;2023-02-19T02:10:10;31.70;;;18.92;;
9906;SDS011;4992;51.628;6.664;2023-02-19T02:12:45;32.87;;;18.47;;
9906;SDS011;4992;51.628;6.664;2023-02-19T02:15:11;37.03;;;18.37;;
9906;SDS011;4992;51.628;6.664;2023-02-19T02:17:52;33.93;;;17.53;;
9906;SDS011;4992;51.628;6.664;2023-02-19T02:20:32;26.50;;;16.43;;
9906;SDS011;4992;51.628;6.664;2023-02-19T02:23:08;23.83;;;14.53;;
9906;SDS011;4992;51.628;6.664;2023-02-19T02:25:50;31.60;;;16.20;;
9906;SDS011;4992;51.628;6.664;2023-02-19T02:28:35;29.27;;;16.90;;
9906;SDS011;4992;51.628;6.664;2023-02-19T02:31:13;23.67;;;16.03;;
9906;SDS011;4992;51.628;6.664;2023-02-19T02:34:03;21.70;;;14.50;;
9906;SDS011;4992;51.628;6.664;2023-02-19T02:36:26;26.93;;;16.00;;
9906;SDS011;4992;51.628;6.664;2023-02-19T02:38:53;28.83;;;15.40;;
9906;SDS011;4992;51.628;6.664;2023-02-19T02:41:20;25.20;;;15.50;;
9906;SDS011;4992;51.628;6.664;2023-02-19T02:43:46;23.40;;;15.13;;
9906;SDS011;4992;51.628;6.664;2023-02-19T02:46:14;24.03;;;13.70;;
9906;SDS011;4992;51.628;6.664;2023-02-19T02:51:19;19.40;;;13.57;;
9906;SDS011;4992;51.628;6.664;2023-02-19T02:53:52;21.53;;;13.70;;
9906;SDS011;4992;51.628;6.664;2023-02-19T02:56:38;20.27;;;13.27;;
9906;SDS011;4992;51.628;6.664;2023-02-19T02:59:05;25.40;;;14.23;;
9906;SDS011;4992;51.628;6.664;2023-02-19T03:01:37;30.37;;;15.37;;
9906;SDS011;4992;51.628;6.664;2023-02-19T03:04:36;27.00;;;14.13;;
9906;SDS011;4992;51.628;6.664;2023-02-19T03:07:25;23.10;;;13.50;;
9906;SDS011;4992;51.628;6.664;2023-02-19T03:09:54;19.43;;;11.97;;
9906;SDS011;4992;51.628;6.664;2023-02-19T03:12:21;22.90;;;12.27;;
9906;SDS011;4992;51.628;6.664;2023-02-19T03:15:07;17.53;;;11.93;;
9906;SDS011;4992;51.628;6.664;2023-02-19T03:18:00;17.33;;;11.83;;
9906;SDS011;4992;51.628;6.664;2023-02-19T03:20:47;20.03;;;12.40;;
9906;SDS011;4992;51.628;6.664;2023-02-19T03:23:13;18.73;;;11.57;;
9906;SDS011;4992;51.628;6.664;2023-02-19T03:25:40;19.37;;;10.77;;
9906;SDS011;4992;51.628;6.664;2023-02-19T03:28:26;21.33;;;11.13;;
9906;SDS011;4992;51.628;6.664;2023-02-19T03:31:12;22.20;;;10.73;;
9906;SDS011;4992;51.628;6.664;2023-02-19T03:33:39;19.07;;;10.80;;
9906;SDS011;4992;51.628;6.664;2023-02-19T03:36:06;18.47;;;10.97;;
9906;SDS011;4992;51.628;6.664;2023-02-19T03:38:38;19.37;;;11.07;;
9906;SDS011;4992;51.628;6.664;2023-02-19T03:41:06;16.97;;;10.90;;
9906;SDS011;4992;51.628;6.664;2023-02-19T03:43:37;24.83;;;12.67;;
9906;SDS011;4992;51.628;6.664;2023-02-19T03:46:11;19.57;;;10.93;;
9906;SDS011;4992;51.628;6.664;2023-02-19T03:48:46;23.23;;;11.77;;
9906;SDS011;4992;51.628;6.664;2023-02-19T03:51:17;22.40;;;11.60;;
9906;SDS011;4992;51.628;6.664;2023-02-19T03:59:05;17.83;;;11.20;;
9906;SDS011;4992;51.628;6.664;2023-02-19T04:06:26;28.97;;;11.23;;
9906;SDS011;4992;51.628;6.664;2023-02-19T04:08:53;20.73;;;12.47;;
9906;SDS011;4992;51.628;6.664;2023-02-19T04:11:20;20.00;;;11.73;;
9906;SDS011;4992;51.628;6.664;2023-02-19T04:16:31;21.03;;;11.97;;
9906;SDS011;4992;51.628;6.664;2023-02-19T04:18:59;18.57;;;11.37;;
9906;SDS011;4992;51.628;6.664;2023-02-19T04:21:27;22.40;;;12.07;;
9906;SDS011;4992;51.628;6.664;2023-02-19T04:23:53;22.73;;;11.43;;
9906;SDS011;4992;51.628;6.664;2023-02-19T04:26:21;19.67;;;11.27;;
9906;SDS011;4992;51.628;6.664;2023-02-19T04:28:47;19.37;;;11.23;;
9906;SDS011;4992;51.628;6.664;2023-02-19T04:31:13;16.33;;;11.13;;
9906;SDS011;4992;51.628;6.664;2023-02-19T04:33:39;21.97;;;11.47;;
9906;SDS011;4992;51.628;6.664;2023-02-19T04:36:06;16.43;;;10.73;;
9906;SDS011;4992;51.628;6.664;2023-02-19T04:38:32;20.83;;;11.57;;
9906;SDS011;4992;51.628;6.664;2023-02-19T04:40:58;19.03;;;12.10;;
9906;SDS011;4992;51.628;6.664;2023-02-19T04:43:24;24.43;;;11.73;;
9906;SDS011;4992;51.628;6.664;2023-02-19T04:45:49;24.33;;;12.33;;
9906;SDS011;4992;51.628;6.664;2023-02-19T04:48:15;17.67;;;11.47;;
9906;SDS011;4992;51.628;6.664;2023-02-19T04:50:41;23.33;;;12.77;;
9906;SDS011;4992;51.628;6.664;2023-02-19T04:53:07;21.00;;;12.97;;
9906;SDS011;4992;51.628;6.664;2023-02-19T04:55:37;23.23;;;12.00;;
9906;SDS011;4992;51.628;6.664;2023-02-19T04:58:03;25.03;;;12.83;;
9906;SDS011;4992;51.628;6.664;2023-02-19T05:00:29;21.10;;;12.50;;
9906;SDS011;4992;51.628;6.664;2023-02-19T05:02:55;25.63;;;12.70;;
9906;SDS011;4992;51.628;6.664;2023-02-19T05:05:21;23.07;;;12.53;;
9906;SDS011;4992;51.628;6.664;2023-02-19T05:07:47;20.03;;;11.47;;
9906;SDS011;4992;51.628;6.664;2023-02-19T05:10:13;21.07;;;11.80;;
9906;SDS011;4992;51.628;6.664;2023-02-19T05:12:39;18.83;;;11.30;;
9906;SDS011;4992;51.628;6.664;2023-02-19T05:15:05;20.83;;;11.50;;
9906;SDS011;4992;51.628;6.664;2023-02-19T05:17:34;17.33;;;11.27;;
9906;SDS011;4992;51.628;6.664;2023-02-19T05:20:00;23.30;;;11.20;;
9906;SDS011;4992;51.628;6.664;2023-02-19T05:22:27;17.77;;;10.40;;
9906;SDS011;4992;51.628;6.664;2023-02-19T05:24:53;17.57;;;10.13;;
9906;SDS011;4992;51.628;6.664;2023-02-19T05:27:19;20.43;;;10.47;;
9906;SDS011;4992;51.628;6.664;2023-02-19T05:29:45;18.53;;;10.07;;
9906;SDS011;4992;51.628;6.664;2023-02-19T05:32:11;20.87;;;9.37;;
9906;SDS011;4992;51.628;6.664;2023-02-19T05:34:37;20.23;;;9.67;;
9906;SDS011;4992;51.628;6.664;2023-02-19T05:37:03;17.43;;;9.50;;
9906;SDS011;4992;51.628;6.664;2023-02-19T05:39:29;16.67;;;9.57;;
9906;SDS011;4992;51.628;6.664;2023-02-19T05:41:55;14.30;;;8.63;;
9906;SDS011;4992;51.628;6.664;2023-02-19T05:44:21;18.87;;;10.17;;
9906;SDS011;4992;51.628;6.664;2023-02-19T05:46:47;16.52;;;9.35;;
9906;SDS011;4992;51.628;6.664;2023-02-19T05:49:13;13.77;;;8.20;;
9906;SDS011;4992;51.628;6.664;2023-02-19T05:51:39;19.47;;;9.17;;
9906;SDS011;4992;51.628;6.664;2023-02-19T05:54:04;15.50;;;9.50;;
9906;SDS011;4992;51.628;6.664;2023-02-19T05:56:32;16.97;;;8.40;;
9906;SDS011;4992;51.628;6.664;2023-02-19T05:58:59;16.87;;;8.10;;
9906;SDS011;4992;51.628;6.664;2023-02-19T06:01:27;18.67;;;8.53;;
9906;SDS011;4992;51.628;6.664;2023-02-19T06:03:53;14.37;;;8.70;;
9906;SDS011;4992;51.628;6.664;2023-02-19T06:06:20;15.13;;;8.60;;
9906;SDS011;4992;51.628;6.664;2023-02-19T06:08:47;16.73;;;8.17;;
9906;SDS011;4992;51.628;6.664;2023-02-19T06:11:14;13.77;;;8.10;;
9906;SDS011;4992;51.628;6.664;2023-02-19T06:13:40;13.80;;;8.03;;
9906;SDS011;4992;51.628;6.664;2023-02-19T06:16:06;14.63;;;8.13;;
9906;SDS011;4992;51.628;6.664;2023-02-19T06:18:32;14.30;;;7.93;;
9906;SDS011;4992;51.628;6.664;2023-02-19T06:21:02;15.27;;;8.17;;
9906;SDS011;4992;51.628;6.664;2023-02-19T06:23:28;16.13;;;8.10;;
9906;SDS011;4992;51.628;6.664;2023-02-19T06:25:54;13.77;;;7.57;;
9906;SDS011;4992;51.628;6.664;2023-02-19T06:28:20;14.10;;;7.97;;
9906;SDS011;4992;51.628;6.664;2023-02-19T06:30:46;14.67;;;8.53;;
9906;SDS011;4992;51.628;6.664;2023-02-19T06:33:12;14.33;;;8.40;;
9906;SDS011;4992;51.628;6.664;2023-02-19T06:35:38;14.37;;;8.47;;
9906;SDS011;4992;51.628;6.664;2023-02-19T06:38:03;17.53;;;8.80;;
9906;SDS011;4992;51.628;6.664;2023-02-19T06:40:29;9.00;;;7.77;;
9906;SDS011;4992;51.628;6.664;2023-02-19T06:42:55;16.13;;;9.53;;
9906;SDS011;4992;51.628;6.664;2023-02-19T06:45:21;13.53;;;8.70;;
9906;SDS011;4992;51.628;6.664;2023-02-19T06:47:47;11.40;;;7.97;;
9906;SDS011;4992;51.628;6.664;2023-02-19T06:50:13;10.53;;;7.63;;
9906;SDS011;4992;51.628;6.664;2023-02-19T06:52:39;11.43;;;8.13;;
9906;SDS011;4992;51.628;6.664;2023-02-19T06:55:05;11.17;;;7.70;;
9906;SDS011;4992;51.628;6.664;2023-02-19T06:57:31;11.87;;;7.97;;
9906;SDS011;4992;51.628;6.664;2023-02-19T06:59:57;12.37;;;7.47;;
9906;SDS011;4992;51.628;6.664;2023-02-19T07:02:23;16.27;;;8.20;;
9906;SDS011;4992;51.628;6.664;2023-02-19T07:04:49;12.03;;;8.43;;
9906;SDS011;4992;51.628;6.664;2023-02-19T07:07:15;11.43;;;7.87;;
9906;SDS011;4992;51.628;6.664;2023-02-19T07:09:41;12.60;;;8.00;;
9906;SDS011;4992;51.628;6.664;2023-02-19T07:12:07;14.83;;;8.07;;
9906;SDS011;4992;51.628;6.664;2023-02-19T07:14:34;11.67;;;8.07;;
9906;SDS011;4992;51.628;6.664;2023-02-19T07:16:59;12.37;;;7.80;;
9906;SDS011;4992;51.628;6.664;2023-02-19T07:19:25;12.70;;;7.60;;
9906;SDS011;4992;51.628;6.664;2023-02-19T07:21:51;10.80;;;7.30;;
9906;SDS011;4992;51.628;6.664;2023-02-19T07:24:17;13.03;;;7.50;;
9906;SDS011;4992;51.628;6.664;2023-02-19T07:26:45;14.47;;;6.73;;
9906;SDS011;4992;51.628;6.664;2023-02-19T07:29:11;15.20;;;7.70;;
9906;SDS011;4992;51.628;6.664;2023-02-19T07:31:37;13.10;;;7.33;;
9906;SDS011;4992;51.628;6.664;2023-02-19T07:34:03;9.70;;;7.13;;
9906;SDS011;4992;51.628;6.664;2023-02-19T07:36:29;17.30;;;9.80;;
9906;SDS011;4992;51.628;6.664;2023-02-19T07:38:55;12.43;;;7.77;;
9906;SDS011;4992;51.628;6.664;2023-02-19T07:41:22;13.80;;;7.63;;
9906;SDS011;4992;51.628;6.664;2023-02-19T07:43:48;8.90;;;6.20;;
9906;SDS011;4992;51.628;6.664;2023-02-19T07:46:14;16.77;;;7.40;;
9906;SDS011;4992;51.628;6.664;2023-02-19T07:48:40;11.00;;;7.30;;
9906;SDS011;4992;51.628;6.664;2023-02-19T07:51:07;16.88;;;7.38;;
9906;SDS011;4992;51.628;6.664;2023-02-19T07:53:34;14.87;;;8.20;;
9906;SDS011;4992;51.628;6.664;2023-02-19T07:56:03;13.80;;;8.00;;
9906;SDS011;4992;51.628;6.664;2023-02-19T07:58:30;10.60;;;7.63;;
9906;SDS011;4992;51.628;6.664;2023-02-19T08:00:57;13.83;;;7.80;;
9906;SDS011;4992;51.628;6.664;2023-02-19T08:03:30;13.67;;;7.90;;
9906;SDS011;4992;51.628;6.664;2023-02-19T08:05:56;16.47;;;8.13;;
9906;SDS011;4992;51.628;6.664;2023-02-19T08:08:22;10.63;;;8.03;;
9906;SDS011;4992;51.628;6.664;2023-02-19T08:10:48;16.30;;;7.70;;
9906;SDS011;4992;51.628;6.664;2023-02-19T08:13:33;14.30;;;8.23;;
9906;SDS011;4992;51.628;6.664;2023-02-19T08:18:29;12.70;;;7.27;;
9906;SDS011;4992;51.628;6.664;2023-02-19T08:20:55;14.30;;;8.00;;
9906;SDS011;4992;51.628;6.664;2023-02-19T08:23:22;10.90;;;6.90;;
9906;SDS011;4992;51.628;6.664;2023-02-19T08:25:48;13.53;;;7.90;;
9906;SDS011;4992;51.628;6.664;2023-02-19T08:28:15;12.40;;;6.57;;
9906;SDS011;4992;51.628;6.664;2023-02-19T08:30:41;10.03;;;6.67;;
9906;SDS011;4992;51.628;6.664;2023-02-19T08:33:20;13.60;;;6.95;;
9906;SDS011;4992;51.628;6.664;2023-02-19T08:35:46;14.63;;;6.78;;
9906;SDS011;4992;51.628;6.664;2023-02-19T08:38:12;12.03;;;6.40;;
9906;SDS011;4992;51.628;6.664;2023-02-19T08:40:40;10.77;;;6.18;;
9906;SDS011;4992;51.628;6.664;2023-02-19T08:43:07;12.87;;;7.53;;
9906;SDS011;4992;51.628;6.664;2023-02-19T08:45:33;14.13;;;7.00;;
9906;SDS011;4992;51.628;6.664;2023-02-19T08:47:59;14.52;;;6.90;;
9906;SDS011;4992;51.628;6.664;2023-02-19T08:50:25;16.65;;;6.63;;
9906;SDS011;4992;51.628;6.664;2023-02-19T08:52:51;13.23;;;7.00;;
9906;SDS011;4992;51.628;6.664;2023-02-19T08:55:17;12.05;;;6.50;;
9906;SDS011;4992;51.628;6.664;2023-02-19T08:57:43;12.70;;;6.93;;
9906;SDS011;4992;51.628;6.664;2023-02-19T09:00:09;13.65;;;6.75;;
9906;SDS011;4992;51.628;6.664;2023-02-19T09:02:36;10.60;;;6.40;;
9906;SDS011;4992;51.628;6.664;2023-02-19T09:05:02;16.08;;;9.38;;
9906;SDS011;4992;51.628;6.664;2023-02-19T09:07:29;10.90;;;6.93;;
9906;SDS011;4992;51.628;6.664;2023-02-19T09:09:55;11.23;;;6.72;;
9906;SDS011;4992;51.628;6.664;2023-02-19T09:12:21;8.52;;;5.30;;
9906;SDS011;4992;51.628;6.664;2023-02-19T09:14:47;10.10;;;5.33;;
9906;SDS011;4992;51.628;6.664;2023-02-19T09:17:13;10.67;;;5.50;;
9906;SDS011;4992;51.628;6.664;2023-02-19T09:19:39;12.38;;;5.22;;
9906;SDS011;4992;51.628;6.664;2023-02-19T09:22:05;8.67;;;4.67;;
9906;SDS011;4992;51.628;6.664;2023-02-19T09:24:31;7.47;;;5.37;;
9906;SDS011;4992;51.628;6.664;2023-02-19T09:26:57;12.37;;;5.73;;
9906;SDS011;4992;51.628;6.664;2023-02-19T09:29:23;9.23;;;5.03;;
9906;SDS011;4992;51.628;6.664;2023-02-19T09:31:49;10.27;;;5.22;;
9906;SDS011;4992;51.628;6.664;2023-02-19T09:34:15;10.75;;;6.20;;
9906;SDS011;4992;51.628;6.664;2023-02-19T09:36:41;9.23;;;5.00;;
9906;SDS011;4992;51.628;6.664;2023-02-19T09:39:07;10.18;;;4.95;;
9906;SDS011;4992;51.628;6.664;2023-02-19T09:41:42;10.45;;;5.22;;
9906;SDS011;4992;51.628;6.664;2023-02-19T09:44:10;10.95;;;5.85;;
9906;SDS011;4992;51.628;6.664;2023-02-19T09:46:44;7.35;;;5.40;;
9906;SDS011;4992;51.628;6.664;2023-02-19T09:49:13;8.23;;;4.72;;
9906;SDS011;4992;51.628;6.664;2023-02-19T09:51:40;7.47;;;5.10;;
9906;SDS011;4992;51.628;6.664;2023-02-19T09:54:09;9.38;;;4.82;;
9906;SDS011;4992;51.628;6.664;2023-02-19T09:56:39;8.02;;;4.95;;
9906;SDS011;4992;51.628;6.664;2023-02-19T09:59:05;9.05;;;4.50;;
9906;SDS011;4992;51.628;6.664;2023-02-19T10:01:32;10.40;;;4.40;;
9906;SDS011;4992;51.628;6.664;2023-02-19T10:03:59;9.77;;;4.50;;
9906;SDS011;4992;51.628;6.664;2023-02-19T10:06:26;5.90;;;3.83;;
9906;SDS011;4992;51.628;6.664;2023-02-19T10:09:36;7.57;;;4.70;;
9906;SDS011;4992;51.628;6.664;2023-02-19T10:11:44;8.82;;;4.10;;
9906;SDS011;4992;51.628;6.664;2023-02-19T10:14:12;7.30;;;4.05;;
9906;SDS011;4992;51.628;6.664;2023-02-19T10:16:40;7.18;;;4.22;;
9906;SDS011;4992;51.628;6.664;2023-02-19T10:19:11;6.90;;;3.92;;
9906;SDS011;4992;51.628;6.664;2023-02-19T10:21:38;6.30;;;3.70;;
9906;SDS011;4992;51.628;6.664;2023-02-19T10:24:05;7.00;;;4.20;;
9906;SDS011;4992;51.628;6.664;2023-02-19T10:26:31;6.70;;;3.78;;
9906;SDS011;4992;51.628;6.664;2023-02-19T10:29:01;8.63;;;3.95;;
9906;SDS011;4992;51.628;6.664;2023-02-19T10:31:29;5.63;;;3.55;;
9906;SDS011;4992;51.628;6.664;2023-02-19T10:33:56;4.85;;;3.50;;
9906;SDS011;4992;51.628;6.664;2023-02-19T10:38:48;4.93;;;3.67;;
9906;SDS011;4992;51.628;6.664;2023-02-19T10:41:15;7.18;;;3.50;;
9906;SDS011;4992;51.628;6.664;2023-02-19T10:43:54;7.40;;;3.75;;
9906;SDS011;4992;51.628;6.664;2023-02-19T10:46:21;4.30;;;3.25;;
9906;SDS011;4992;51.628;6.664;2023-02-19T10:48:52;6.53;;;3.47;;
9906;SDS011;4992;51.628;6.664;2023-02-19T10:51:19;4.50;;;3.42;;
9906;SDS011;4992;51.628;6.664;2023-02-19T10:53:47;8.38;;;3.20;;
9906;SDS011;4992;51.628;6.664;2023-02-19T10:58:40;6.03;;;2.90;;
9906;SDS011;4992;51.628;6.664;2023-02-19T11:01:21;4.15;;;2.70;;
9906;SDS011;4992;51.628;6.664;2023-02-19T11:03:50;5.70;;;2.72;;
9906;SDS011;4992;51.628;6.664;2023-02-19T11:06:20;2.95;;;2.50;;
9906;SDS011;4992;51.628;6.664;2023-02-19T11:08:51;3.63;;;2.80;;
9906;SDS011;4992;51.628;6.664;2023-02-19T11:11:31;4.75;;;3.08;;
9906;SDS011;4992;51.628;6.664;2023-02-19T11:13:58;5.72;;;2.97;;
9906;SDS011;4992;51.628;6.664;2023-02-19T11:16:36;7.05;;;3.53;;
9906;SDS011;4992;51.628;6.664;2023-02-19T11:19:03;3.63;;;2.70;;
9906;SDS011;4992;51.628;6.664;2023-02-19T11:21:29;5.22;;;2.70;;
9906;SDS011;4992;51.628;6.664;2023-02-19T11:23:57;4.32;;;2.67;;
9906;SDS011;4992;51.628;6.664;2023-02-19T11:26:25;3.75;;;2.85;;
9906;SDS011;4992;51.628;6.664;2023-02-19T11:28:56;3.95;;;2.90;;
9906;SDS011;4992;51.628;6.664;2023-02-19T11:33:55;5.00;;;3.83;;
9906;SDS011;4992;51.628;6.664;2023-02-19T11:38:47;2.75;;;1.70;;
9906;SDS011;4992;51.628;6.664;2023-02-19T11:41:23;3.30;;;1.83;;
9906;SDS011;4992;51.628;6.664;2023-02-19T11:46:28;4.60;;;2.30;;
9906;SDS011;4992;51.628;6.664;2023-02-19T11:49:16;4.75;;;2.17;;
9906;SDS011;4992;51.628;6.664;2023-02-19T11:51:57;3.70;;;1.70;;
9906;SDS011;4992;51.628;6.664;2023-02-19T11:57:07;5.82;;;2.20;;
9906;SDS011;4992;51.628;6.664;2023-02-19T12:07:42;2.83;;;1.95;;
9906;SDS011;4992;51.628;6.664;2023-02-19T12:10:14;3.75;;;2.38;;
9906;SDS011;4992;51.628;6.664;2023-02-19T12:18:22;6.70;;;2.90;;
9906;SDS011;4992;51.628;6.664;2023-02-19T12:20:55;5.88;;;3.53;;
9906;SDS011;4992;51.628;6.664;2023-02-19T12:38:58;4.20;;;1.92;;
9906;SDS011;4992;51.628;6.664;2023-02-19T12:41:29;3.33;;;1.83;;
9906;SDS011;4992;51.628;6.664;2023-02-19T12:46:38;1.95;;;1.02;;
9906;SDS011;4992;51.628;6.664;2023-02-19T12:49:09;1.13;;;1.00;;
9906;SDS011;4992;51.628;6.664;2023-02-19T12:51:48;1.38;;;0.98;;
9906;SDS011;4992;51.628;6.664;2023-02-19T12:54:22;1.52;;;1.05;;
9906;SDS011;4992;51.628;6.664;2023-02-19T12:56:54;2.83;;;1.65;;
9906;SDS011;4992;51.628;6.664;2023-02-19T13:04:28;2.38;;;1.42;;
9906;SDS011;4992;51.628;6.664;2023-02-19T13:06:58;1.98;;;1.10;;
9906;SDS011;4992;51.628;6.664;2023-02-19T13:09:36;2.75;;;1.30;;
9906;SDS011;4992;51.628;6.664;2023-02-19T13:12:07;2.17;;;1.55;;
9906;SDS011;4992;51.628;6.664;2023-02-19T13:14:37;2.58;;;1.90;;
9906;SDS011;4992;51.628;6.664;2023-02-19T13:17:18;2.05;;;1.55;;
9906;SDS011;4992;51.628;6.664;2023-02-19T13:19:47;2.97;;;1.83;;
9906;SDS011;4992;51.628;6.664;2023-02-19T13:22:29;2.38;;;1.77;;
9906;SDS011;4992;51.628;6.664;2023-02-19T13:25:16;7.80;;;2.30;;
9906;SDS011;4992;51.628;6.664;2023-02-19T13:27:49;3.92;;;2.10;;
9906;SDS011;4992;51.628;6.664;2023-02-19T13:33:00;3.03;;;1.90;;
9906;SDS011;4992;51.628;6.664;2023-02-19T13:38:12;2.17;;;1.80;;
9906;SDS011;4992;51.628;6.664;2023-02-19T13:40:40;4.47;;;1.92;;
9906;SDS011;4992;51.628;6.664;2023-02-19T13:45:44;5.60;;;2.30;;
9906;SDS011;4992;51.628;6.664;2023-02-19T13:50:40;2.90;;;2.40;;
9906;SDS011;4992;51.628;6.664;2023-02-19T13:55:55;1.92;;;1.80;;
9906;SDS011;4992;51.628;6.664;2023-02-19T13:58:37;2.28;;;1.90;;
9906;SDS011;4992;51.628;6.664;2023-02-19T14:01:07;3.88;;;1.75;;
9906;SDS011;4992;51.628;6.664;2023-02-19T14:03:53;2.65;;;1.73;;
9906;SDS011;4992;51.628;6.664;2023-02-19T14:06:19;4.93;;;1.70;;
9906;SDS011;4992;51.628;6.664;2023-02-19T14:11:15;2.95;;;1.88;;
9906;SDS011;4992;51.628;6.664;2023-02-19T14:18:52;3.67;;;1.90;;
9906;SDS011;4992;51.628;6.664;2023-02-19T14:21:36;4.78;;;2.50;;
9906;SDS011;4992;51.628;6.664;2023-02-19T14:24:03;5.18;;;2.40;;
9906;SDS011;4992;51.628;6.664;2023-02-19T14:26:30;6.03;;;2.55;;
9906;SDS011;4992;51.628;6.664;2023-02-19T14:28:56;4.93;;;2.90;;
9906;SDS011;4992;51.628;6.664;2023-02-19T14:31:30;3.35;;;2.80;;
9906;SDS011;4992;51.628;6.664;2023-02-19T14:34:00;4.38;;;2.60;;
9906;SDS011;4992;51.628;6.664;2023-02-19T14:36:38;3.50;;;2.63;;
9906;SDS011;4992;51.628;6.664;2023-02-19T14:39:11;3.28;;;2.60;;
9906;SDS011;4992;51.628;6.664;2023-02-19T14:41:40;6.95;;;5.35;;
9906;SDS011;4992;51.628;6.664;2023-02-19T14:44:11;5.28;;;3.35;;
9906;SDS011;4992;51.628;6.664;2023-02-19T14:46:57;6.68;;;3.20;;
9906;SDS011;4992;51.628;6.664;2023-02-19T14:52:03;9.35;;;3.95;;
9906;SDS011;4992;51.628;6.664;2023-02-19T14:54:38;4.40;;;4.05;;
9906;SDS011;4992;51.628;6.664;2023-02-19T14:57:10;4.15;;;3.47;;
9906;SDS011;4992;51.628;6.664;2023-02-19T14:59:36;4.45;;;4.05;;
9906;SDS011;4992;51.628;6.664;2023-02-19T15:02:12;6.72;;;4.80;;
9906;SDS011;4992;51.628;6.664;2023-02-19T15:04:38;5.28;;;4.78;;
9906;SDS011;4992;51.628;6.664;2023-02-19T15:07:05;5.13;;;4.72;;
9906;SDS011;4992;51.628;6.664;2023-02-19T15:09:34;5.68;;;4.20;;
9906;SDS011;4992;51.628;6.664;2023-02-19T15:12:00;6.20;;;4.60;;
9906;SDS011;4992;51.628;6.664;2023-02-19T15:14:27;5.15;;;4.32;;
9906;SDS011;4992;51.628;6.664;2023-02-19T15:16:58;6.65;;;4.00;;
9906;SDS011;4992;51.628;6.664;2023-02-19T15:19:25;4.60;;;3.97;;
9906;SDS011;4992;51.628;6.664;2023-02-19T15:21:52;4.38;;;3.95;;
9906;SDS011;4992;51.628;6.664;2023-02-19T15:24:19;3.97;;;3.67;;
9906;SDS011;4992;51.628;6.664;2023-02-19T15:26:52;5.43;;;4.18;;
9906;SDS011;4992;51.628;6.664;2023-02-19T15:29:22;4.35;;;3.75;;
9906;SDS011;4992;51.628;6.664;2023-02-19T15:31:52;4.10;;;3.55;;
9906;SDS011;4992;51.628;6.664;2023-02-19T15:34:28;2.70;;;2.50;;
9906;SDS011;4992;51.628;6.664;2023-02-19T15:37:01;2.40;;;2.20;;
9906;SDS011;4992;51.628;6.664;2023-02-19T15:39:35;2.70;;;2.50;;
9906;SDS011;4992;51.628;6.664;2023-02-19T15:42:02;2.70;;;2.20;;
9906;SDS011;4992;51.628;6.664;2023-02-19T15:44:30;1.35;;;1.20;;
9906;SDS011;4992;51.628;6.664;2023-02-19T15:46:59;1.95;;;1.40;;
9906;SDS011;4992;51.628;6.664;2023-02-19T15:49:29;2.23;;;1.50;;
9906;SDS011;4992;51.628;6.664;2023-02-19T15:51:58;4.07;;;1.77;;
9906;SDS011;4992;51.628;6.664;2023-02-19T15:54:29;2.10;;;1.38;;
9906;SDS011;4992;51.628;6.664;2023-02-19T15:56:59;1.57;;;1.47;;
9906;SDS011;4992;51.628;6.664;2023-02-19T15:59:27;2.53;;;1.60;;
9906;SDS011;4992;51.628;6.664;2023-02-19T16:01:55;3.23;;;1.63;;
9906;SDS011;4992;51.628;6.664;2023-02-19T16:04:21;4.00;;;2.00;;
9906;SDS011;4992;51.628;6.664;2023-02-19T16:09:19;2.27;;;1.87;;
9906;SDS011;4992;51.628;6.664;2023-02-19T16:11:50;3.83;;;2.00;;
9906;SDS011;4992;51.628;6.664;2023-02-19T16:16:43;3.10;;;2.00;;
9906;SDS011;4992;51.628;6.664;2023-02-19T16:19:10;3.65;;;2.72;;
9906;SDS011;4992;51.628;6.664;2023-02-19T16:21:36;2.47;;;2.20;;
9906;SDS011;4992;51.628;6.664;2023-02-19T16:24:13;2.80;;;2.60;;
9906;SDS011;4992;51.628;6.664;2023-02-19T16:26:41;4.87;;;3.23;;
9906;SDS011;4992;51.628;6.664;2023-02-19T16:29:18;7.37;;;4.17;;
9906;SDS011;4992;51.628;6.664;2023-02-19T16:31:51;5.20;;;4.13;;
9906;SDS011;4992;51.628;6.664;2023-02-19T16:34:25;4.57;;;4.10;;
9906;SDS011;4992;51.628;6.664;2023-02-19T16:36:54;5.07;;;4.20;;
9906;SDS011;4992;51.628;6.664;2023-02-19T16:39:20;6.27;;;4.47;;
9906;SDS011;4992;51.628;6.664;2023-02-19T16:46:59;4.13;;;3.83;;
9906;SDS011;4992;51.628;6.664;2023-02-19T16:49:27;4.27;;;3.87;;
9906;SDS011;4992;51.628;6.664;2023-02-19T16:51:53;5.17;;;4.20;;
9906;SDS011;4992;51.628;6.664;2023-02-19T16:54:19;5.07;;;4.57;;
9906;SDS011;4992;51.628;6.664;2023-02-19T16:56:45;4.63;;;4.03;;